NSZ3865 LIRN-EKBI
Flight info
| Callsign | NSZ3865 |
|---|---|
| Flight time | 2h 35m |
| Altitude | 36000 |
| Route | ALAXI DCT INSOX DCT OKDEB DCT PEMAR DCT TIBER DCT GITOD DCT AMTEL DCT KUGIX DCT OSMOX DCT BEROK DCT ABESI N851 UTAVO DCT ROLSA/N0444F350 DCT LOKTA DCT TEDGO DCT HAREM DCT LOHRE DCT ELNAT/N0443F360 P605 NORTA Z595 NIE N850 ELSOB/N0440F370 Y348 OMWEG M105 AMRAK DCT LOKSA |
| Aircraft | A320/M-SDE3FGHIRWY/LB1 |
Departure
| Time | 2026-04-29 18:30 |
|---|---|
| Airport | Naples International Airport (LIRN) |
Arrival
| Time | 2026-04-29 21:05 |
|---|---|
| Airport | Billund Airport (EKBI) |
| Time | Latitude | Longitude | Altitude | Speed | Heading |
|---|---|---|---|---|---|
| 2026-04-29 18:11 | 40.87839 | 14.28088 | 300 ft | 0 kts | 141° |
| 2026-04-29 18:17 | 40.87858 | 14.28068 | 299 ft | 4 kts | 141° |
| 2026-04-29 18:17 | 40.87875 | 14.28050 | 298 ft | 4 kts | 143° |
| 2026-04-29 18:18 | 40.87897 | 14.28037 | 299 ft | 4 kts | 189° |
| 2026-04-29 18:18 | 40.87917 | 14.28051 | 297 ft | 3 kts | 231° |
| 2026-04-29 18:18 | 40.87919 | 14.28055 | 299 ft | 0 kts | 231° |
| 2026-04-29 18:21 | 40.87918 | 14.28054 | 297 ft | 1 kts | 231° |
| 2026-04-29 18:21 | 40.87910 | 14.28016 | 297 ft | 5 kts | 273° |
| 2026-04-29 18:21 | 40.87905 | 14.27992 | 298 ft | 1 kts | 185° |
| 2026-04-29 18:21 | 40.87904 | 14.28014 | 298 ft | 5 kts | 86° |
| 2026-04-29 18:22 | 40.87930 | 14.28072 | 297 ft | 9 kts | 51° |
| 2026-04-29 18:22 | 40.87964 | 14.28157 | 293 ft | 12 kts | 85° |
| 2026-04-29 18:22 | 40.87951 | 14.28280 | 290 ft | 15 kts | 98° |
| 2026-04-29 18:22 | 40.87938 | 14.28429 | 288 ft | 16 kts | 86° |
| 2026-04-29 18:23 | 40.88011 | 14.28545 | 285 ft | 18 kts | 49° |
| 2026-04-29 18:23 | 40.88063 | 14.28637 | 282 ft | 20 kts | 52° |
| 2026-04-29 18:23 | 40.88154 | 14.28792 | 279 ft | 23 kts | 52° |
| 2026-04-29 18:23 | 40.88290 | 14.29027 | 273 ft | 24 kts | 53° |
| 2026-04-29 18:24 | 40.88358 | 14.29147 | 270 ft | 25 kts | 53° |
| 2026-04-29 18:24 | 40.88472 | 14.29347 | 265 ft | 29 kts | 52° |
| 2026-04-29 18:24 | 40.88586 | 14.29541 | 259 ft | 26 kts | 52° |
| 2026-04-29 18:24 | 40.88702 | 14.29741 | 253 ft | 28 kts | 53° |
| 2026-04-29 18:25 | 40.88820 | 14.29948 | 247 ft | 29 kts | 53° |
| 2026-04-29 18:25 | 40.88944 | 14.30160 | 239 ft | 29 kts | 52° |
| 2026-04-29 18:25 | 40.89036 | 14.30255 | 237 ft | 9 kts | 346° |
| 2026-04-29 18:25 | 40.89051 | 14.30247 | 236 ft | 0 kts | 335° |
| 2026-04-29 18:26 | 40.89053 | 14.30246 | 236 ft | 0 kts | 335° |
| 2026-04-29 18:26 | 40.89054 | 14.30245 | 236 ft | 0 kts | 335° |
| 2026-04-29 18:28 | 40.89055 | 14.30245 | 236 ft | 0 kts | 335° |
| 2026-04-29 18:28 | 40.89090 | 14.30219 | 234 ft | 10 kts | 329° |
| 2026-04-29 18:28 | 40.89110 | 14.30149 | 235 ft | 8 kts | 245° |
| 2026-04-29 18:28 | 40.89106 | 14.30142 | 240 ft | 0 kts | 237° |
| 2026-04-29 18:29 | 40.89095 | 14.30119 | 237 ft | 21 kts | 237° |
| 2026-04-29 18:29 | 40.88866 | 14.29637 | 252 ft | 99 kts | 238° |
| 2026-04-29 18:29 | 40.88393 | 14.28633 | 285 ft | 155 kts | 238° |
| 2026-04-29 18:30 | 40.87842 | 14.27325 | 817 ft | 167 kts | 252° |
| 2026-04-29 18:30 | 40.87825 | 14.25832 | 1561 ft | 163 kts | 291° |
| 2026-04-29 18:30 | 40.88290 | 14.24467 | 2158 ft | 165 kts | 296° |
| 2026-04-29 18:30 | 40.88796 | 14.23099 | 2648 ft | 169 kts | 297° |
| 2026-04-29 18:31 | 40.89362 | 14.21664 | 2854 ft | 189 kts | 296° |
| 2026-04-29 18:31 | 40.90014 | 14.20041 | 3086 ft | 209 kts | 297° |
| 2026-04-29 18:31 | 40.90717 | 14.18301 | 3569 ft | 214 kts | 297° |
| 2026-04-29 18:31 | 40.91412 | 14.16573 | 4199 ft | 217 kts | 297° |
| 2026-04-29 18:32 | 40.92121 | 14.14806 | 4866 ft | 218 kts | 297° |
| 2026-04-29 18:32 | 40.94414 | 14.12179 | 5985 ft | 237 kts | 341° |
| 2026-04-29 18:32 | 40.96253 | 14.11815 | 6286 ft | 264 kts | 352° |
| 2026-04-29 18:33 | 40.98034 | 14.11573 | 6767 ft | 276 kts | 352° |
| 2026-04-29 18:33 | 40.99960 | 14.11314 | 7483 ft | 280 kts | 352° |
| 2026-04-29 18:33 | 41.01905 | 14.11047 | 8249 ft | 282 kts | 352° |
| 2026-04-29 18:33 | 41.03867 | 14.10769 | 9009 ft | 285 kts | 351° |
| 2026-04-29 18:34 | 41.05843 | 14.10485 | 9772 ft | 287 kts | 351° |
| 2026-04-29 18:34 | 41.07161 | 14.10295 | 10213 ft | 290 kts | 351° |
| 2026-04-29 18:34 | 41.09986 | 14.09885 | 10438 ft | 320 kts | 351° |
| 2026-04-29 18:34 | 41.12261 | 14.09555 | 10747 ft | 335 kts | 351° |
| 2026-04-29 18:35 | 41.14597 | 14.09220 | 11318 ft | 340 kts | 351° |
| 2026-04-29 18:35 | 41.16952 | 14.08837 | 11933 ft | 342 kts | 347° |
| 2026-04-29 18:35 | 41.19228 | 14.07944 | 12543 ft | 342 kts | 335° |
| 2026-04-29 18:35 | 41.21313 | 14.06426 | 13159 ft | 343 kts | 323° |
| 2026-04-29 18:36 | 41.23163 | 14.04427 | 13741 ft | 344 kts | 318° |
| 2026-04-29 18:36 | 41.24995 | 14.02351 | 14289 ft | 347 kts | 318° |
| 2026-04-29 18:36 | 41.26841 | 14.00262 | 14831 ft | 350 kts | 318° |
| 2026-04-29 18:36 | 41.28698 | 13.98162 | 15371 ft | 352 kts | 318° |
| 2026-04-29 18:37 | 41.30488 | 13.95937 | 15893 ft | 353 kts | 312° |
| 2026-04-29 18:37 | 41.32186 | 13.93559 | 16410 ft | 356 kts | 312° |
| 2026-04-29 18:37 | 41.33891 | 13.91157 | 16955 ft | 358 kts | 312° |
| 2026-04-29 18:37 | 41.35604 | 13.88735 | 17498 ft | 361 kts | 311° |
| 2026-04-29 18:38 | 41.37327 | 13.86300 | 18052 ft | 363 kts | 311° |
| 2026-04-29 18:38 | 41.39061 | 13.83845 | 18559 ft | 365 kts | 311° |
| 2026-04-29 18:38 | 41.40806 | 13.81371 | 19005 ft | 368 kts | 311° |
| 2026-04-29 18:38 | 41.42566 | 13.78877 | 19477 ft | 370 kts | 311° |
| 2026-04-29 18:39 | 41.44337 | 13.76370 | 19947 ft | 373 kts | 311° |
| 2026-04-29 18:39 | 41.46120 | 13.73846 | 20423 ft | 375 kts | 311° |
| 2026-04-29 18:39 | 41.47910 | 13.71306 | 20873 ft | 377 kts | 311° |
| 2026-04-29 18:39 | 41.49712 | 13.68746 | 21314 ft | 379 kts | 311° |
| 2026-04-29 18:40 | 41.51498 | 13.66205 | 21739 ft | 382 kts | 311° |
| 2026-04-29 18:40 | 41.53320 | 13.63613 | 22166 ft | 384 kts | 311° |
| 2026-04-29 18:40 | 41.55152 | 13.61005 | 22581 ft | 386 kts | 311° |
| 2026-04-29 18:40 | 41.56992 | 13.58381 | 23010 ft | 388 kts | 311° |
| 2026-04-29 18:41 | 41.62573 | 13.50403 | 24152 ft | 395 kts | 312° |
| 2026-04-29 18:41 | 41.64450 | 13.47717 | 24494 ft | 396 kts | 311° |
| 2026-04-29 18:42 | 41.66336 | 13.45014 | 24835 ft | 398 kts | 311° |
| 2026-04-29 18:42 | 41.68232 | 13.42300 | 25178 ft | 400 kts | 311° |
| 2026-04-29 18:42 | 41.70136 | 13.39574 | 25523 ft | 402 kts | 311° |
| 2026-04-29 18:42 | 41.72046 | 13.36836 | 25875 ft | 403 kts | 311° |
| 2026-04-29 18:43 | 41.73961 | 13.34084 | 26222 ft | 405 kts | 311° |
| 2026-04-29 18:43 | 41.75884 | 13.31312 | 26548 ft | 407 kts | 311° |
| 2026-04-29 18:43 | 41.77808 | 13.28529 | 26881 ft | 408 kts | 311° |
| 2026-04-29 18:43 | 41.79743 | 13.25733 | 27221 ft | 410 kts | 311° |
| 2026-04-29 18:44 | 41.81687 | 13.22927 | 27571 ft | 412 kts | 311° |
| 2026-04-29 18:44 | 41.83639 | 13.20107 | 27892 ft | 413 kts | 311° |
| 2026-04-29 18:44 | 41.85598 | 13.17264 | 28251 ft | 415 kts | 311° |
| 2026-04-29 18:44 | 41.87581 | 13.14379 | 28593 ft | 416 kts | 311° |
| 2026-04-29 18:45 | 41.89515 | 13.11564 | 29053 ft | 415 kts | 311° |
| 2026-04-29 18:45 | 41.91467 | 13.08720 | 29549 ft | 413 kts | 311° |
| 2026-04-29 18:45 | 41.93409 | 13.05892 | 30031 ft | 411 kts | 311° |
| 2026-04-29 18:45 | 41.95351 | 13.03073 | 30447 ft | 410 kts | 311° |
| 2026-04-29 18:46 | 41.97287 | 13.00262 | 30843 ft | 409 kts | 310° |
| 2026-04-29 18:46 | 41.99215 | 12.97456 | 31254 ft | 408 kts | 310° |
| 2026-04-29 18:46 | 42.01133 | 12.94658 | 31660 ft | 406 kts | 310° |
| 2026-04-29 18:46 | 42.03043 | 12.91862 | 32066 ft | 405 kts | 310° |
| 2026-04-29 18:47 | 42.04947 | 12.89079 | 32469 ft | 403 kts | 310° |
| 2026-04-29 18:47 | 42.06849 | 12.86310 | 32862 ft | 402 kts | 310° |
| 2026-04-29 18:47 | 42.08745 | 12.83549 | 33258 ft | 401 kts | 310° |
| 2026-04-29 18:47 | 42.10634 | 12.80791 | 33648 ft | 400 kts | 310° |
| 2026-04-29 18:48 | 42.12520 | 12.78037 | 34031 ft | 399 kts | 310° |
| 2026-04-29 18:48 | 42.14402 | 12.75290 | 34345 ft | 399 kts | 310° |
| 2026-04-29 18:48 | 42.16282 | 12.72544 | 34622 ft | 399 kts | 310° |
| 2026-04-29 18:48 | 42.18160 | 12.69797 | 34887 ft | 398 kts | 310° |
| 2026-04-29 18:49 | 42.20038 | 12.67049 | 35161 ft | 398 kts | 310° |
| 2026-04-29 18:49 | 42.21911 | 12.64301 | 35418 ft | 398 kts | 310° |
| 2026-04-29 18:49 | 42.23880 | 12.61667 | 35666 ft | 400 kts | 317° |
| 2026-04-29 18:49 | 42.26164 | 12.59502 | 35910 ft | 404 kts | 327° |
| 2026-04-29 18:50 | 42.28720 | 12.57890 | 36044 ft | 408 kts | 335° |
| 2026-04-29 18:50 | 42.31388 | 12.56509 | 36071 ft | 414 kts | 335° |
| 2026-04-29 18:50 | 42.36838 | 12.53694 | 36070 ft | 423 kts | 335° |
| 2026-04-29 18:51 | 42.42349 | 12.50835 | 36071 ft | 425 kts | 335° |
| 2026-04-29 18:51 | 42.47869 | 12.47960 | 36064 ft | 425 kts | 335° |
| 2026-04-29 18:52 | 42.53386 | 12.45076 | 36064 ft | 425 kts | 335° |
| 2026-04-29 18:52 | 42.58904 | 12.42185 | 36075 ft | 425 kts | 335° |
| 2026-04-29 18:53 | 42.64382 | 12.39315 | 36071 ft | 425 kts | 335° |
| 2026-04-29 18:53 | 42.69899 | 12.36419 | 36064 ft | 425 kts | 335° |
| 2026-04-29 18:54 | 42.75412 | 12.33512 | 36062 ft | 425 kts | 335° |
| 2026-04-29 18:54 | 42.80488 | 12.29572 | 36073 ft | 418 kts | 317° |
| 2026-04-29 18:55 | 42.84425 | 12.23826 | 36071 ft | 415 kts | 308° |
| 2026-04-29 18:55 | 42.88084 | 12.17748 | 36064 ft | 415 kts | 308° |
| 2026-04-29 18:56 | 42.91752 | 12.11670 | 36068 ft | 415 kts | 308° |
| 2026-04-29 18:56 | 42.95416 | 12.05581 | 36069 ft | 415 kts | 308° |
| 2026-04-29 18:57 | 42.99072 | 11.99476 | 36065 ft | 415 kts | 307° |
| 2026-04-29 18:57 | 43.02722 | 11.93359 | 36080 ft | 415 kts | 308° |
| 2026-04-29 18:58 | 43.06374 | 11.87246 | 36078 ft | 415 kts | 308° |
| 2026-04-29 18:58 | 43.10020 | 11.81130 | 36075 ft | 414 kts | 308° |
| 2026-04-29 18:59 | 43.13654 | 11.75011 | 36074 ft | 414 kts | 308° |
| 2026-04-29 18:59 | 43.17282 | 11.68880 | 36070 ft | 414 kts | 307° |
| 2026-04-29 19:00 | 43.20972 | 11.62817 | 36063 ft | 415 kts | 314° |
| 2026-04-29 19:00 | 43.25659 | 11.58167 | 36067 ft | 420 kts | 329° |
| 2026-04-29 19:01 | 43.30810 | 11.54386 | 36069 ft | 420 kts | 329° |
| 2026-04-29 19:01 | 43.35949 | 11.50580 | 36067 ft | 420 kts | 329° |
| 2026-04-29 19:02 | 43.40216 | 11.47404 | 36066 ft | 420 kts | 329° |
| 2026-04-29 19:02 | 43.46216 | 11.42937 | 36073 ft | 419 kts | 329° |
| 2026-04-29 19:03 | 43.51344 | 11.39116 | 36069 ft | 419 kts | 329° |
| 2026-04-29 19:03 | 43.56129 | 11.34654 | 36067 ft | 414 kts | 314° |
| 2026-04-29 19:04 | 43.59967 | 11.28774 | 36049 ft | 412 kts | 309° |
| 2026-04-29 19:04 | 43.63760 | 11.22831 | 36039 ft | 413 kts | 310° |
| 2026-04-29 19:05 | 43.67559 | 11.16879 | 36037 ft | 413 kts | 310° |
| 2026-04-29 19:05 | 43.71354 | 11.10904 | 36050 ft | 413 kts | 309° |
| 2026-04-29 19:06 | 43.75138 | 11.04927 | 36049 ft | 413 kts | 309° |
| 2026-04-29 19:07 | 43.80164 | 10.96956 | 36053 ft | 413 kts | 309° |
| 2026-04-29 19:07 | 43.83933 | 10.90960 | 36057 ft | 413 kts | 309° |
| 2026-04-29 19:08 | 43.88201 | 10.83857 | 36069 ft | 412 kts | 307° |
| 2026-04-29 19:08 | 43.91216 | 10.78672 | 36083 ft | 412 kts | 307° |
| 2026-04-29 19:09 | 43.95397 | 10.71481 | 36087 ft | 412 kts | 307° |
| 2026-04-29 19:09 | 43.98417 | 10.66314 | 36094 ft | 411 kts | 307° |
| 2026-04-29 19:10 | 44.02029 | 10.60148 | 36096 ft | 411 kts | 307° |
| 2026-04-29 19:10 | 44.05637 | 10.53984 | 36104 ft | 411 kts | 307° |
| 2026-04-29 19:11 | 44.09235 | 10.47798 | 36110 ft | 411 kts | 307° |
| 2026-04-29 19:11 | 44.12825 | 10.41601 | 36105 ft | 411 kts | 307° |
| 2026-04-29 19:12 | 44.16724 | 10.35794 | 36120 ft | 413 kts | 320° |
| 2026-04-29 19:12 | 44.21754 | 10.31886 | 36119 ft | 417 kts | 333° |
| 2026-04-29 19:13 | 44.27042 | 10.28560 | 36107 ft | 417 kts | 332° |
| 2026-04-29 19:13 | 44.32283 | 10.25229 | 36116 ft | 417 kts | 332° |
| 2026-04-29 19:14 | 44.37559 | 10.21865 | 36113 ft | 417 kts | 332° |
| 2026-04-29 19:14 | 44.42838 | 10.18498 | 36111 ft | 417 kts | 332° |
| 2026-04-29 19:15 | 44.48118 | 10.15125 | 36118 ft | 417 kts | 332° |
| 2026-04-29 19:15 | 44.53394 | 10.11745 | 36107 ft | 417 kts | 332° |
| 2026-04-29 19:16 | 44.58670 | 10.08366 | 36121 ft | 417 kts | 332° |
| 2026-04-29 19:16 | 44.63936 | 10.04983 | 36117 ft | 416 kts | 332° |
| 2026-04-29 19:17 | 44.69186 | 10.01602 | 36108 ft | 415 kts | 332° |
| 2026-04-29 19:17 | 44.74434 | 9.98218 | 36107 ft | 415 kts | 332° |
| 2026-04-29 19:18 | 44.79673 | 9.94829 | 36091 ft | 414 kts | 332° |
| 2026-04-29 19:18 | 44.84903 | 9.91447 | 36057 ft | 413 kts | 332° |
| 2026-04-29 19:19 | 44.90124 | 9.88060 | 36053 ft | 413 kts | 332° |
| 2026-04-29 19:19 | 44.95338 | 9.84666 | 36053 ft | 413 kts | 332° |
| 2026-04-29 19:20 | 45.00548 | 9.81270 | 36094 ft | 412 kts | 332° |
| 2026-04-29 19:20 | 45.05746 | 9.77880 | 36095 ft | 411 kts | 332° |
| 2026-04-29 19:21 | 45.10934 | 9.74486 | 36095 ft | 411 kts | 332° |
| 2026-04-29 19:21 | 45.16121 | 9.71096 | 36094 ft | 411 kts | 332° |
| 2026-04-29 19:22 | 45.21302 | 9.67689 | 36111 ft | 410 kts | 332° |
| 2026-04-29 19:22 | 45.26470 | 9.64277 | 36106 ft | 409 kts | 332° |
| 2026-04-29 19:23 | 45.31632 | 9.60876 | 36114 ft | 409 kts | 332° |
| 2026-04-29 19:23 | 45.36750 | 9.57504 | 36122 ft | 408 kts | 332° |
| 2026-04-29 19:24 | 45.41896 | 9.54101 | 36135 ft | 407 kts | 332° |
| 2026-04-29 19:24 | 45.47060 | 9.50662 | 36134 ft | 407 kts | 332° |
| 2026-04-29 19:25 | 45.52190 | 9.47254 | 36131 ft | 406 kts | 332° |
| 2026-04-29 19:25 | 45.57315 | 9.43853 | 36127 ft | 406 kts | 332° |
| 2026-04-29 19:26 | 45.62435 | 9.40438 | 36126 ft | 406 kts | 332° |
| 2026-04-29 19:26 | 45.67551 | 9.37021 | 36101 ft | 406 kts | 332° |
| 2026-04-29 19:27 | 45.72629 | 9.33618 | 36104 ft | 406 kts | 332° |
| 2026-04-29 19:27 | 45.77738 | 9.30179 | 36104 ft | 406 kts | 332° |
| 2026-04-29 19:28 | 45.82880 | 9.26712 | 36123 ft | 406 kts | 331° |
| 2026-04-29 19:28 | 45.87990 | 9.23284 | 36126 ft | 405 kts | 332° |
| 2026-04-29 19:29 | 45.93096 | 9.19846 | 36126 ft | 405 kts | 331° |
| 2026-04-29 19:29 | 45.98196 | 9.16383 | 36127 ft | 405 kts | 331° |
| 2026-04-29 19:30 | 46.03258 | 9.12944 | 36132 ft | 405 kts | 331° |
| 2026-04-29 19:30 | 46.08347 | 9.09493 | 36129 ft | 404 kts | 331° |
| 2026-04-29 19:31 | 46.13426 | 9.06044 | 36134 ft | 404 kts | 332° |
| 2026-04-29 19:31 | 46.18878 | 9.03882 | 36130 ft | 414 kts | 349° |
| 2026-04-29 19:32 | 46.24614 | 9.03131 | 36141 ft | 414 kts | 349° |
| 2026-04-29 19:32 | 46.30349 | 9.02363 | 36136 ft | 414 kts | 349° |
| 2026-04-29 19:33 | 46.36084 | 9.01585 | 36127 ft | 414 kts | 349° |
| 2026-04-29 19:33 | 46.41825 | 9.00809 | 36139 ft | 415 kts | 349° |
| 2026-04-29 19:34 | 46.47575 | 9.00037 | 36138 ft | 414 kts | 349° |
| 2026-04-29 19:34 | 46.53317 | 8.99268 | 36145 ft | 414 kts | 349° |
| 2026-04-29 19:35 | 46.59060 | 8.98497 | 36145 ft | 414 kts | 349° |
| 2026-04-29 19:35 | 46.64800 | 8.97724 | 36170 ft | 414 kts | 349° |
| 2026-04-29 19:36 | 46.70539 | 8.96941 | 36167 ft | 414 kts | 349° |
| 2026-04-29 19:36 | 46.76274 | 8.96159 | 36151 ft | 413 kts | 349° |
| 2026-04-29 19:37 | 46.81999 | 8.95383 | 36164 ft | 414 kts | 349° |
| 2026-04-29 19:37 | 46.87720 | 8.94604 | 36172 ft | 413 kts | 349° |
| 2026-04-29 19:38 | 46.93448 | 8.93809 | 36176 ft | 414 kts | 349° |
| 2026-04-29 19:38 | 46.99179 | 8.93018 | 36173 ft | 413 kts | 350° |
| 2026-04-29 19:39 | 47.04897 | 8.92240 | 36191 ft | 412 kts | 350° |
| 2026-04-29 19:39 | 47.10619 | 8.91464 | 36186 ft | 413 kts | 350° |
| 2026-04-29 19:40 | 47.16337 | 8.90676 | 36183 ft | 413 kts | 350° |
| 2026-04-29 19:40 | 47.22048 | 8.89889 | 36183 ft | 412 kts | 350° |
| 2026-04-29 19:41 | 47.27767 | 8.89186 | 36194 ft | 415 kts | 356° |
| 2026-04-29 19:41 | 47.33525 | 8.90413 | 36181 ft | 422 kts | 8° |
| 2026-04-29 19:42 | 47.39291 | 8.92325 | 36179 ft | 423 kts | 7° |
| 2026-04-29 19:42 | 47.45008 | 8.94213 | 36174 ft | 423 kts | 7° |
| 2026-04-29 19:43 | 47.50764 | 8.96121 | 36184 ft | 424 kts | 9° |
| 2026-04-29 19:43 | 47.56526 | 8.98026 | 36187 ft | 425 kts | 9° |
| 2026-04-29 19:44 | 47.62295 | 8.99939 | 36195 ft | 425 kts | 9° |
| 2026-04-29 19:44 | 47.68068 | 9.01869 | 36222 ft | 425 kts | 10° |
| 2026-04-29 19:45 | 47.73840 | 9.03804 | 36220 ft | 425 kts | 10° |
| 2026-04-29 19:45 | 47.79596 | 9.05737 | 36224 ft | 424 kts | 10° |
| 2026-04-29 19:46 | 47.85352 | 9.07669 | 36222 ft | 424 kts | 10° |
| 2026-04-29 19:46 | 47.91103 | 9.09613 | 36234 ft | 423 kts | 11° |
| 2026-04-29 19:47 | 47.96814 | 9.11540 | 36237 ft | 423 kts | 11° |
| 2026-04-29 19:47 | 48.02538 | 9.13480 | 36233 ft | 422 kts | 11° |
| 2026-04-29 19:48 | 48.08271 | 9.15423 | 36239 ft | 422 kts | 11° |
| 2026-04-29 19:48 | 48.13995 | 9.17365 | 36246 ft | 422 kts | 12° |
| 2026-04-29 19:49 | 48.19766 | 9.18803 | 36245 ft | 420 kts | 6° |
| 2026-04-29 19:49 | 48.25580 | 9.19770 | 36248 ft | 420 kts | 6° |
| 2026-04-29 19:50 | 48.31370 | 9.20745 | 36261 ft | 419 kts | 6° |
| 2026-04-29 19:50 | 48.37158 | 9.21721 | 36259 ft | 418 kts | 6° |
| 2026-04-29 19:51 | 48.42930 | 9.22696 | 36256 ft | 417 kts | 6° |
| 2026-04-29 19:51 | 48.48693 | 9.23676 | 36259 ft | 417 kts | 6° |
| 2026-04-29 19:52 | 48.54454 | 9.24656 | 36265 ft | 417 kts | 6° |
| 2026-04-29 19:52 | 48.59286 | 9.25409 | 36267 ft | 417 kts | 6° |
| 2026-04-29 19:53 | 48.65054 | 9.26261 | 36268 ft | 417 kts | 6° |
| 2026-04-29 19:53 | 48.70824 | 9.27124 | 36275 ft | 417 kts | 6° |
| 2026-04-29 19:54 | 48.79420 | 9.28449 | 36274 ft | 415 kts | 6° |
| 2026-04-29 19:54 | 48.85162 | 9.29356 | 36272 ft | 414 kts | 6° |
| 2026-04-29 19:55 | 48.90890 | 9.30255 | 36270 ft | 414 kts | 6° |
| 2026-04-29 19:55 | 48.96610 | 9.31137 | 36271 ft | 413 kts | 6° |
| 2026-04-29 19:56 | 49.02321 | 9.32010 | 36279 ft | 412 kts | 6° |
| 2026-04-29 19:56 | 49.08020 | 9.32907 | 36284 ft | 412 kts | 7° |
| 2026-04-29 19:57 | 49.13718 | 9.33804 | 36279 ft | 411 kts | 6° |
| 2026-04-29 19:57 | 49.19411 | 9.34696 | 36291 ft | 411 kts | 7° |
| 2026-04-29 19:58 | 49.25101 | 9.35593 | 36296 ft | 411 kts | 7° |
| 2026-04-29 19:58 | 49.30790 | 9.36493 | 36274 ft | 411 kts | 7° |
| 2026-04-29 19:59 | 49.36475 | 9.37393 | 36292 ft | 411 kts | 7° |
| 2026-04-29 19:59 | 49.42162 | 9.38282 | 36300 ft | 411 kts | 7° |
| 2026-04-29 20:00 | 49.47850 | 9.39175 | 36305 ft | 411 kts | 7° |
| 2026-04-29 20:00 | 49.53534 | 9.40077 | 36317 ft | 411 kts | 7° |
| 2026-04-29 20:01 | 49.59220 | 9.40979 | 36331 ft | 411 kts | 8° |
| 2026-04-29 20:01 | 49.64904 | 9.41889 | 36332 ft | 411 kts | 8° |
| 2026-04-29 20:02 | 49.70582 | 9.42814 | 36337 ft | 410 kts | 8° |
| 2026-04-29 20:02 | 49.75338 | 9.43577 | 36335 ft | 410 kts | 8° |
| 2026-04-29 20:03 | 49.81927 | 9.44628 | 36332 ft | 409 kts | 8° |
| 2026-04-29 20:03 | 49.87589 | 9.45544 | 36348 ft | 409 kts | 8° |
| 2026-04-29 20:04 | 49.93245 | 9.46459 | 36351 ft | 409 kts | 8° |
| 2026-04-29 20:04 | 49.98896 | 9.47377 | 36351 ft | 408 kts | 8° |
| 2026-04-29 20:05 | 50.04540 | 9.48293 | 36359 ft | 408 kts | 8° |
| 2026-04-29 20:05 | 50.10177 | 9.49227 | 36362 ft | 407 kts | 9° |
| 2026-04-29 20:06 | 50.15801 | 9.50218 | 36365 ft | 406 kts | 9° |
| 2026-04-29 20:06 | 50.21420 | 9.51223 | 36375 ft | 406 kts | 9° |
| 2026-04-29 20:07 | 50.27033 | 9.52223 | 36379 ft | 406 kts | 9° |
| 2026-04-29 20:07 | 50.32640 | 9.53212 | 36387 ft | 405 kts | 9° |
| 2026-04-29 20:08 | 50.37331 | 9.54038 | 36386 ft | 405 kts | 9° |
| 2026-04-29 20:08 | 50.43833 | 9.55190 | 36393 ft | 404 kts | 9° |
| 2026-04-29 20:09 | 50.49419 | 9.56194 | 36382 ft | 404 kts | 10° |
| 2026-04-29 20:09 | 50.55001 | 9.57205 | 36394 ft | 403 kts | 10° |
| 2026-04-29 20:10 | 50.60575 | 9.58202 | 36404 ft | 403 kts | 10° |
| 2026-04-29 20:10 | 50.66144 | 9.59205 | 36407 ft | 403 kts | 10° |
| 2026-04-29 20:11 | 50.71712 | 9.60202 | 36406 ft | 403 kts | 10° |
| 2026-04-29 20:11 | 50.77277 | 9.61202 | 36414 ft | 402 kts | 10° |
| 2026-04-29 20:12 | 50.82840 | 9.62224 | 36416 ft | 402 kts | 10° |
| 2026-04-29 20:12 | 50.88363 | 9.63235 | 36416 ft | 402 kts | 10° |
| 2026-04-29 20:13 | 50.93022 | 9.64081 | 36415 ft | 402 kts | 10° |
| 2026-04-29 20:13 | 50.99479 | 9.65256 | 36418 ft | 402 kts | 10° |
| 2026-04-29 20:14 | 51.05031 | 9.66267 | 36415 ft | 402 kts | 10° |
| 2026-04-29 20:14 | 51.10580 | 9.67286 | 36415 ft | 401 kts | 10° |
| 2026-04-29 20:15 | 51.16129 | 9.68312 | 36421 ft | 401 kts | 10° |
| 2026-04-29 20:15 | 51.21676 | 9.69325 | 36427 ft | 401 kts | 10° |
| 2026-04-29 20:16 | 51.27229 | 9.70241 | 36434 ft | 401 kts | 9° |
| 2026-04-29 20:16 | 51.32776 | 9.71116 | 36437 ft | 400 kts | 9° |
| 2026-04-29 20:17 | 51.38318 | 9.71999 | 36435 ft | 400 kts | 9° |
| 2026-04-29 20:17 | 51.43852 | 9.72895 | 36428 ft | 399 kts | 9° |
| 2026-04-29 20:18 | 51.49369 | 9.73818 | 36436 ft | 398 kts | 10° |
| 2026-04-29 20:18 | 51.54864 | 9.74851 | 36438 ft | 397 kts | 11° |
| 2026-04-29 20:19 | 51.60352 | 9.75926 | 36446 ft | 397 kts | 11° |
| 2026-04-29 20:19 | 51.65839 | 9.76979 | 36442 ft | 397 kts | 10° |
| 2026-04-29 20:20 | 51.71326 | 9.78025 | 36453 ft | 397 kts | 11° |
| 2026-04-29 20:20 | 51.76812 | 9.79064 | 36455 ft | 397 kts | 10° |
| 2026-04-29 20:21 | 51.82294 | 9.80100 | 36458 ft | 397 kts | 10° |
| 2026-04-29 20:21 | 51.87830 | 9.80085 | 36457 ft | 405 kts | 354° |
| 2026-04-29 20:22 | 51.93266 | 9.77343 | 36423 ft | 411 kts | 346° |
| 2026-04-29 20:22 | 51.98664 | 9.74261 | 36429 ft | 412 kts | 346° |
| 2026-04-29 20:23 | 52.04075 | 9.71166 | 36442 ft | 413 kts | 346° |
| 2026-04-29 20:23 | 52.09490 | 9.68059 | 36448 ft | 413 kts | 346° |
| 2026-04-29 20:24 | 52.14902 | 9.64949 | 36453 ft | 412 kts | 346° |
| 2026-04-29 20:24 | 52.20307 | 9.61833 | 36462 ft | 412 kts | 346° |
| 2026-04-29 20:25 | 52.25712 | 9.58718 | 36468 ft | 412 kts | 346° |
| 2026-04-29 20:25 | 52.31115 | 9.55600 | 36454 ft | 412 kts | 346° |
| 2026-04-29 20:26 | 52.36516 | 9.52468 | 36451 ft | 412 kts | 346° |
| 2026-04-29 20:26 | 52.41914 | 9.49327 | 36450 ft | 412 kts | 346° |
| 2026-04-29 20:27 | 52.46397 | 9.46709 | 36452 ft | 411 kts | 346° |
| 2026-04-29 20:27 | 52.52661 | 9.43039 | 36453 ft | 411 kts | 346° |
| 2026-04-29 20:28 | 52.58061 | 9.39867 | 36456 ft | 411 kts | 346° |
| 2026-04-29 20:28 | 52.63536 | 9.37849 | 36455 ft | 400 kts | 2° |
| 2026-04-29 20:29 | 52.69012 | 9.38565 | 36454 ft | 394 kts | 11° |
| 2026-04-29 20:29 | 52.74452 | 9.39733 | 36462 ft | 394 kts | 11° |
| 2026-04-29 20:30 | 52.79895 | 9.40894 | 36467 ft | 394 kts | 11° |
| 2026-04-29 20:30 | 52.85343 | 9.42044 | 36469 ft | 394 kts | 11° |
| 2026-04-29 20:31 | 52.90785 | 9.43200 | 36469 ft | 394 kts | 11° |
| 2026-04-29 20:31 | 52.96230 | 9.44367 | 36471 ft | 394 kts | 11° |
| 2026-04-29 20:32 | 53.01670 | 9.45539 | 36481 ft | 394 kts | 11° |
| 2026-04-29 20:32 | 53.06195 | 9.46507 | 36481 ft | 394 kts | 11° |
| 2026-04-29 20:33 | 53.12559 | 9.47855 | 36483 ft | 395 kts | 11° |
| 2026-04-29 20:33 | 53.18008 | 9.49018 | 36491 ft | 395 kts | 11° |
| 2026-04-29 20:34 | 53.23460 | 9.50185 | 36494 ft | 395 kts | 11° |
| 2026-04-29 20:34 | 53.28911 | 9.51348 | 36493 ft | 395 kts | 11° |
| 2026-04-29 20:35 | 53.34353 | 9.52510 | 36493 ft | 394 kts | 11° |
| 2026-04-29 20:35 | 53.39794 | 9.53688 | 36488 ft | 394 kts | 11° |
| 2026-04-29 20:36 | 53.44317 | 9.54669 | 36495 ft | 394 kts | 11° |
| 2026-04-29 20:36 | 53.49756 | 9.55856 | 36499 ft | 394 kts | 11° |
| 2026-04-29 20:37 | 53.55210 | 9.56924 | 36500 ft | 395 kts | 8° |
| 2026-04-29 20:37 | 53.60703 | 9.57557 | 36500 ft | 396 kts | 7° |
| 2026-04-29 20:38 | 53.66213 | 9.57735 | 36497 ft | 400 kts | 358° |
| 2026-04-29 20:38 | 53.71731 | 9.56401 | 36499 ft | 400 kts | 356° |
| 2026-04-29 20:39 | 53.77246 | 9.55137 | 36502 ft | 400 kts | 357° |
| 2026-04-29 20:39 | 53.82765 | 9.53887 | 36500 ft | 400 kts | 357° |
| 2026-04-29 20:40 | 53.88287 | 9.52611 | 36502 ft | 400 kts | 356° |
| 2026-04-29 20:40 | 53.93803 | 9.51305 | 36508 ft | 400 kts | 356° |
| 2026-04-29 20:41 | 53.99320 | 9.50104 | 36472 ft | 397 kts | 1° |
| 2026-04-29 20:41 | 54.04748 | 9.51096 | 36480 ft | 391 kts | 13° |
| 2026-04-29 20:42 | 54.10087 | 9.52833 | 36498 ft | 390 kts | 13° |
| 2026-04-29 20:42 | 54.15417 | 9.54540 | 36499 ft | 389 kts | 13° |
| 2026-04-29 20:43 | 54.20733 | 9.56248 | 36488 ft | 389 kts | 13° |
| 2026-04-29 20:43 | 54.23397 | 9.57109 | 35923 ft | 391 kts | 13° |
| 2026-04-29 20:43 | 54.26076 | 9.57977 | 35278 ft | 392 kts | 13° |
| 2026-04-29 20:44 | 54.28749 | 9.58848 | 34829 ft | 389 kts | 14° |
| 2026-04-29 20:44 | 54.31398 | 9.59716 | 34383 ft | 386 kts | 14° |
| 2026-04-29 20:44 | 54.34023 | 9.60579 | 33904 ft | 383 kts | 14° |
| 2026-04-29 20:44 | 54.36628 | 9.61432 | 33421 ft | 380 kts | 14° |
| 2026-04-29 20:45 | 54.39212 | 9.62277 | 32920 ft | 377 kts | 14° |
| 2026-04-29 20:45 | 54.41778 | 9.63115 | 32421 ft | 374 kts | 13° |
| 2026-04-29 20:45 | 54.44327 | 9.63945 | 31949 ft | 371 kts | 13° |
| 2026-04-29 20:45 | 54.46856 | 9.64769 | 31489 ft | 369 kts | 13° |
| 2026-04-29 20:46 | 54.49367 | 9.65587 | 31036 ft | 366 kts | 13° |
| 2026-04-29 20:46 | 54.51859 | 9.66402 | 30598 ft | 363 kts | 13° |
| 2026-04-29 20:46 | 54.54332 | 9.67211 | 30090 ft | 361 kts | 13° |
| 2026-04-29 20:46 | 54.56758 | 9.67988 | 29596 ft | 358 kts | 13° |
| 2026-04-29 20:47 | 54.59200 | 9.68759 | 29106 ft | 356 kts | 13° |
| 2026-04-29 20:47 | 54.61628 | 9.69522 | 28631 ft | 353 kts | 13° |
| 2026-04-29 20:47 | 54.64040 | 9.70284 | 28181 ft | 351 kts | 12° |
| 2026-04-29 20:47 | 54.66434 | 9.71020 | 27745 ft | 349 kts | 12° |
| 2026-04-29 20:48 | 54.68825 | 9.71665 | 27317 ft | 347 kts | 11° |
| 2026-04-29 20:48 | 54.71207 | 9.72255 | 26895 ft | 345 kts | 10° |
| 2026-04-29 20:48 | 54.73576 | 9.72827 | 26472 ft | 343 kts | 10° |
| 2026-04-29 20:48 | 54.75934 | 9.73400 | 26049 ft | 341 kts | 11° |
| 2026-04-29 20:49 | 54.78276 | 9.73983 | 25632 ft | 339 kts | 11° |
| 2026-04-29 20:49 | 54.80606 | 9.74575 | 25220 ft | 337 kts | 11° |
| 2026-04-29 20:49 | 54.82945 | 9.74849 | 24805 ft | 339 kts | 0° |
| 2026-04-29 20:49 | 54.85290 | 9.74358 | 24395 ft | 339 kts | 355° |
| 2026-04-29 20:50 | 54.87619 | 9.73766 | 23949 ft | 338 kts | 355° |
| 2026-04-29 20:50 | 54.89938 | 9.73177 | 23515 ft | 335 kts | 355° |
| 2026-04-29 20:50 | 54.92232 | 9.72594 | 23069 ft | 332 kts | 355° |
| 2026-04-29 20:50 | 54.94512 | 9.72019 | 22608 ft | 330 kts | 356° |
| 2026-04-29 20:51 | 54.96776 | 9.71449 | 22159 ft | 328 kts | 356° |
| 2026-04-29 20:51 | 54.99026 | 9.70885 | 21719 ft | 326 kts | 356° |
| 2026-04-29 20:51 | 55.01262 | 9.70324 | 21290 ft | 324 kts | 356° |
| 2026-04-29 20:51 | 55.03487 | 9.69763 | 20864 ft | 322 kts | 356° |
| 2026-04-29 20:52 | 55.05697 | 9.69201 | 20441 ft | 320 kts | 356° |
| 2026-04-29 20:52 | 55.07897 | 9.68644 | 20024 ft | 319 kts | 356° |
| 2026-04-29 20:52 | 55.10085 | 9.68092 | 19610 ft | 317 kts | 356° |
| 2026-04-29 20:52 | 55.12261 | 9.67540 | 19202 ft | 315 kts | 356° |
| 2026-04-29 20:53 | 55.14426 | 9.66987 | 18797 ft | 314 kts | 356° |
| 2026-04-29 20:53 | 55.16580 | 9.66439 | 18342 ft | 312 kts | 356° |
| 2026-04-29 20:53 | 55.18718 | 9.65897 | 17929 ft | 310 kts | 356° |
| 2026-04-29 20:53 | 55.20844 | 9.65355 | 17499 ft | 308 kts | 356° |
| 2026-04-29 20:54 | 55.25051 | 9.64273 | 16818 ft | 300 kts | 356° |
| 2026-04-29 20:54 | 55.27088 | 9.63745 | 16644 ft | 292 kts | 356° |
| 2026-04-29 20:54 | 55.29067 | 9.63234 | 16513 ft | 283 kts | 356° |
| 2026-04-29 20:55 | 55.30987 | 9.62742 | 16089 ft | 285 kts | 356° |
| 2026-04-29 20:55 | 55.32968 | 9.62242 | 15586 ft | 290 kts | 356° |
| 2026-04-29 20:55 | 55.34979 | 9.61731 | 15089 ft | 294 kts | 356° |
| 2026-04-29 20:55 | 55.37013 | 9.61210 | 14607 ft | 297 kts | 356° |
| 2026-04-29 20:56 | 55.39071 | 9.60687 | 14102 ft | 300 kts | 356° |
| 2026-04-29 20:56 | 55.41146 | 9.60160 | 13567 ft | 302 kts | 356° |
| 2026-04-29 20:56 | 55.43234 | 9.59623 | 13042 ft | 304 kts | 356° |
| 2026-04-29 20:56 | 55.45330 | 9.59082 | 12527 ft | 305 kts | 356° |
| 2026-04-29 20:57 | 55.47436 | 9.58536 | 12026 ft | 306 kts | 355° |
| 2026-04-29 20:57 | 55.49547 | 9.57988 | 11520 ft | 307 kts | 355° |
| 2026-04-29 20:57 | 55.51654 | 9.57438 | 11183 ft | 301 kts | 355° |
| 2026-04-29 20:57 | 55.53634 | 9.56910 | 11406 ft | 274 kts | 356° |
| 2026-04-29 20:58 | 55.55439 | 9.56425 | 11539 ft | 254 kts | 356° |
| 2026-04-29 20:58 | 55.57164 | 9.55976 | 11311 ft | 249 kts | 356° |
| 2026-04-29 20:58 | 55.58873 | 9.55539 | 11004 ft | 248 kts | 356° |
| 2026-04-29 20:58 | 55.60575 | 9.55106 | 10699 ft | 247 kts | 356° |
| 2026-04-29 20:59 | 55.62270 | 9.54671 | 10391 ft | 246 kts | 356° |
| 2026-04-29 20:59 | 55.63959 | 9.54234 | 10064 ft | 245 kts | 356° |
| 2026-04-29 20:59 | 55.65644 | 9.53796 | 9694 ft | 245 kts | 356° |
| 2026-04-29 20:59 | 55.67329 | 9.53358 | 9303 ft | 243 kts | 356° |
| 2026-04-29 21:00 | 55.68982 | 9.52927 | 8759 ft | 243 kts | 355° |
| 2026-04-29 21:00 | 55.70655 | 9.52490 | 8238 ft | 243 kts | 355° |
| 2026-04-29 21:00 | 55.72323 | 9.52051 | 7725 ft | 242 kts | 355° |
| 2026-04-29 21:00 | 55.73931 | 9.51282 | 7206 ft | 240 kts | 333° |
| 2026-04-29 21:01 | 55.74981 | 9.49099 | 6619 ft | 234 kts | 292° |
| 2026-04-29 21:01 | 55.75057 | 9.46303 | 6040 ft | 225 kts | 263° |
| 2026-04-29 21:01 | 55.74886 | 9.43608 | 5458 ft | 215 kts | 267° |
| 2026-04-29 21:01 | 55.74794 | 9.41011 | 4864 ft | 207 kts | 268° |
| 2026-04-29 21:02 | 55.74721 | 9.38491 | 4273 ft | 203 kts | 268° |
| 2026-04-29 21:02 | 55.74650 | 9.35986 | 3688 ft | 203 kts | 267° |
| 2026-04-29 21:02 | 55.74578 | 9.33495 | 3099 ft | 202 kts | 267° |
| 2026-04-29 21:02 | 55.74506 | 9.31021 | 2503 ft | 200 kts | 267° |
| 2026-04-29 21:03 | 55.74437 | 9.28674 | 2049 ft | 180 kts | 268° |
| 2026-04-29 21:03 | 55.74375 | 9.26608 | 1874 ft | 162 kts | 269° |
| 2026-04-29 21:03 | 55.74318 | 9.24652 | 1441 ft | 156 kts | 269° |
| 2026-04-29 21:03 | 55.74262 | 9.22733 | 975 ft | 155 kts | 268° |
| 2026-04-29 21:04 | 55.74199 | 9.20917 | 700 ft | 139 kts | 268° |
| 2026-04-29 21:04 | 55.74153 | 9.19265 | 456 ft | 134 kts | 268° |
| 2026-04-29 21:04 | 55.74105 | 9.17642 | 309 ft | 126 kts | 268° |
| 2026-04-29 21:04 | 55.74082 | 9.16200 | 219 ft | 104 kts | 263° |
| 2026-04-29 21:05 | 55.74041 | 9.15308 | 216 ft | 50 kts | 265° |
| 2026-04-29 21:05 | 55.73960 | 9.14884 | 221 ft | 32 kts | 241° |
| 2026-04-29 21:05 | 55.73883 | 9.14628 | 221 ft | 22 kts | 245° |
| 2026-04-29 21:05 | 55.73850 | 9.14369 | 216 ft | 19 kts | 265° |
| 2026-04-29 21:06 | 55.73843 | 9.14176 | 216 ft | 12 kts | 266° |
| 2026-04-29 21:06 | 55.73838 | 9.14026 | 216 ft | 10 kts | 266° |
| 2026-04-29 21:06 | 55.73833 | 9.13889 | 225 ft | 12 kts | 265° |
| 2026-04-29 21:06 | 55.73825 | 9.13722 | 216 ft | 15 kts | 266° |
| 2026-04-29 21:07 | 55.73823 | 9.13598 | 216 ft | 7 kts | 286° |
| 2026-04-29 21:07 | 55.73867 | 9.13573 | 216 ft | 8 kts | 12° |
| 2026-04-29 21:07 | 55.73935 | 9.13600 | 221 ft | 12 kts | 12° |
| 2026-04-29 21:07 | 55.73988 | 9.13712 | 216 ft | 14 kts | 82° |
| 2026-04-29 21:08 | 55.73994 | 9.13904 | 220 ft | 17 kts | 87° |
| 2026-04-29 21:08 | 55.74001 | 9.14133 | 216 ft | 19 kts | 86° |
| 2026-04-29 21:08 | 55.74009 | 9.14363 | 223 ft | 16 kts | 86° |
| 2026-04-29 21:08 | 55.74055 | 9.14495 | 222 ft | 15 kts | 9° |
| 2026-04-29 21:09 | 55.74164 | 9.14487 | 218 ft | 16 kts | 356° |
| 2026-04-29 21:09 | 55.74226 | 9.14481 | 220 ft | 0 kts | 356° |
| 2026-04-29 21:09 | 55.74240 | 9.14479 | 216 ft | 3 kts | 356° |
| 2026-04-29 21:10 | 55.74275 | 9.14476 | 216 ft | 7 kts | 356° |
| 2026-04-29 21:10 | 55.74331 | 9.14470 | 216 ft | 10 kts | 356° |
| 2026-04-29 21:10 | 55.74400 | 9.14465 | 216 ft | 7 kts | 4° |
| 2026-04-29 21:10 | 55.74435 | 9.14517 | 216 ft | 5 kts | 68° |
| 2026-04-29 21:11 | 55.74443 | 9.14586 | 222 ft | 6 kts | 82° |
| 2026-04-29 21:11 | 55.74472 | 9.14625 | 216 ft | 6 kts | 3° |
| 2026-04-29 21:11 | 55.74499 | 9.14621 | 223 ft | 4 kts | 352° |
| 2026-04-29 21:11 | 55.74516 | 9.14619 | 219 ft | 0 kts | 358° |
| 2026-04-29 21:12 | 55.74527 | 9.14618 | 219 ft | 2 kts | 357° |
| 2026-04-29 21:12 | 55.74532 | 9.14618 | 218 ft | 0 kts | 357° |